sensor_id;sensor_type;location;lat;lon;timestamp;pressure;altitude;pressure_sealevel;temperature;humidity
27210;BME280;14721;42.668;23.386;2022-11-14T00:02:19;96461.34;;;5.02;98.17
27210;BME280;14721;42.668;23.386;2022-11-14T00:04:46;96456.63;;;4.86;98.75
27210;BME280;14721;42.668;23.386;2022-11-14T00:07:13;96460.16;;;4.86;99.13
27210;BME280;14721;42.668;23.386;2022-11-14T00:09:40;96461.09;;;4.84;99.92
27210;BME280;14721;42.668;23.386;2022-11-14T00:12:08;96461.19;;;4.81;100.00
27210;BME280;14721;42.668;23.386;2022-11-14T00:14:34;96464.00;;;4.76;100.00
27210;BME280;14721;42.668;23.386;2022-11-14T00:17:00;96461.34;;;4.76;100.00
27210;BME280;14721;42.668;23.386;2022-11-14T00:19:27;96463.41;;;4.68;100.00
27210;BME280;14721;42.668;23.386;2022-11-14T00:21:53;96462.53;;;4.68;100.00
27210;BME280;14721;42.668;23.386;2022-11-14T00:24:19;96459.88;;;4.68;100.00
27210;BME280;14721;42.668;23.386;2022-11-14T00:26:45;96460.72;;;4.70;100.00
27210;BME280;14721;42.668;23.386;2022-11-14T00:29:13;96454.69;;;4.65;100.00
27210;BME280;14721;42.668;23.386;2022-11-14T00:31:40;96458.84;;;4.72;100.00
27210;BME280;14721;42.668;23.386;2022-11-14T00:34:07;96458.91;;;4.70;100.00
27210;BME280;14721;42.668;23.386;2022-11-14T00:36:33;96461.31;;;4.78;100.00
27210;BME280;14721;42.668;23.386;2022-11-14T00:38:59;96458.13;;;4.68;100.00
27210;BME280;14721;42.668;23.386;2022-11-14T00:41:26;96459.69;;;4.74;100.00
27210;BME280;14721;42.668;23.386;2022-11-14T00:43:52;96458.50;;;4.82;100.00
27210;BME280;14721;42.668;23.386;2022-11-14T00:46:18;96454.13;;;4.81;100.00
27210;BME280;14721;42.668;23.386;2022-11-14T00:48:44;96454.06;;;4.83;100.00
27210;BME280;14721;42.668;23.386;2022-11-14T00:51:10;96448.66;;;4.86;100.00
27210;BME280;14721;42.668;23.386;2022-11-14T00:53:37;96453.66;;;4.95;100.00
27210;BME280;14721;42.668;23.386;2022-11-14T00:56:03;96444.03;;;4.92;100.00
27210;BME280;14721;42.668;23.386;2022-11-14T00:58:29;96447.75;;;4.87;100.00
27210;BME280;14721;42.668;23.386;2022-11-14T01:00:55;96432.06;;;4.81;100.00
27210;BME280;14721;42.668;23.386;2022-11-14T01:03:21;96452.00;;;4.92;100.00
27210;BME280;14721;42.668;23.386;2022-11-14T01:05:48;96442.25;;;4.93;100.00
27210;BME280;14721;42.668;23.386;2022-11-14T01:08:16;96448.34;;;4.95;99.91
27210;BME280;14721;42.668;23.386;2022-11-14T01:10:44;96433.44;;;4.92;99.46
27210;BME280;14721;42.668;23.386;2022-11-14T01:13:11;96420.47;;;4.85;99.62
27210;BME280;14721;42.668;23.386;2022-11-14T01:15:42;96441.22;;;4.97;99.46
27210;BME280;14721;42.668;23.386;2022-11-14T01:18:13;96440.31;;;4.98;99.65
27210;BME280;14721;42.668;23.386;2022-11-14T01:20:41;96438.44;;;5.01;99.50
27210;BME280;14721;42.668;23.386;2022-11-14T01:23:08;96438.31;;;5.04;99.39
27210;BME280;14721;42.668;23.386;2022-11-14T01:25:38;96431.28;;;5.03;99.41
27210;BME280;14721;42.668;23.386;2022-11-14T01:28:12;96433.75;;;5.08;99.24
27210;BME280;14721;42.668;23.386;2022-11-14T01:30:38;96410.34;;;4.96;99.10
27210;BME280;14721;42.668;23.386;2022-11-14T01:33:04;96416.69;;;4.92;99.18
27210;BME280;14721;42.668;23.386;2022-11-14T01:35:32;96424.75;;;4.89;99.38
27210;BME280;14721;42.668;23.386;2022-11-14T01:37:58;96423.81;;;4.90;99.12
27210;BME280;14721;42.668;23.386;2022-11-14T01:40:23;96422.84;;;4.92;99.21
27210;BME280;14721;42.668;23.386;2022-11-14T01:45:54;96411.44;;;4.90;98.76
27210;BME280;14721;42.668;23.386;2022-11-14T01:48:40;96409.28;;;4.77;98.73
27210;BME280;14721;42.668;23.386;2022-11-14T01:53:53;96406.13;;;4.66;98.94
27210;BME280;14721;42.668;23.386;2022-11-14T01:56:35;96410.72;;;4.61;98.77
27210;BME280;14721;42.668;23.386;2022-11-14T01:59:08;96411.03;;;4.52;98.99
27210;BME280;14721;42.668;23.386;2022-11-14T02:01:39;96401.44;;;4.48;99.16
27210;BME280;14721;42.668;23.386;2022-11-14T02:04:06;96410.00;;;4.56;99.56
27210;BME280;14721;42.668;23.386;2022-11-14T02:06:32;96394.13;;;4.56;100.00
27210;BME280;14721;42.668;23.386;2022-11-14T02:09:03;96371.59;;;4.44;100.00
27210;BME280;14721;42.668;23.386;2022-11-14T02:11:33;96394.84;;;4.61;100.00
27210;BME280;14721;42.668;23.386;2022-11-14T02:14:00;96394.13;;;4.56;100.00
27210;BME280;14721;42.668;23.386;2022-11-14T02:16:26;96404.00;;;4.51;100.00
27210;BME280;14721;42.668;23.386;2022-11-14T02:18:53;96402.28;;;4.50;100.00
27210;BME280;14721;42.668;23.386;2022-11-14T02:21:18;96401.66;;;4.42;100.00
27210;BME280;14721;42.668;23.386;2022-11-14T02:23:44;96404.50;;;4.36;100.00
27210;BME280;14721;42.668;23.386;2022-11-14T02:26:10;96382.91;;;4.23;100.00
27210;BME280;14721;42.668;23.386;2022-11-14T02:28:35;96405.31;;;4.38;100.00
27210;BME280;14721;42.668;23.386;2022-11-14T02:31:01;96397.91;;;4.23;100.00
27210;BME280;14721;42.668;23.386;2022-11-14T02:33:26;96399.56;;;4.25;100.00
27210;BME280;14721;42.668;23.386;2022-11-14T02:35:52;96392.44;;;4.27;100.00
27210;BME280;14721;42.668;23.386;2022-11-14T02:38:18;96401.47;;;4.22;100.00
27210;BME280;14721;42.668;23.386;2022-11-14T02:40:44;96390.97;;;4.19;100.00
27210;BME280;14721;42.668;23.386;2022-11-14T02:43:10;96394.38;;;4.22;100.00
27210;BME280;14721;42.668;23.386;2022-11-14T02:45:36;96383.84;;;4.21;100.00
27210;BME280;14721;42.668;23.386;2022-11-14T02:48:02;96400.25;;;4.32;100.00
27210;BME280;14721;42.668;23.386;2022-11-14T02:50:27;96393.91;;;4.36;100.00
27210;BME280;14721;42.668;23.386;2022-11-14T02:52:53;96396.63;;;4.34;100.00
27210;BME280;14721;42.668;23.386;2022-11-14T02:55:20;96388.72;;;4.33;100.00
27210;BME280;14721;42.668;23.386;2022-11-14T02:57:45;96389.66;;;4.32;100.00
27210;BME280;14721;42.668;23.386;2022-11-14T03:00:12;96396.19;;;4.22;100.00
27210;BME280;14721;42.668;23.386;2022-11-14T03:02:38;96388.19;;;4.23;100.00
27210;BME280;14721;42.668;23.386;2022-11-14T03:05:04;96392.59;;;4.23;100.00
27210;BME280;14721;42.668;23.386;2022-11-14T03:07:30;96391.69;;;3.98;100.00
27210;BME280;14721;42.668;23.386;2022-11-14T03:09:56;96389.13;;;3.95;100.00
27210;BME280;14721;42.668;23.386;2022-11-14T03:12:22;96389.47;;;3.84;100.00
27210;BME280;14721;42.668;23.386;2022-11-14T03:14:48;96389.28;;;3.90;100.00
27210;BME280;14721;42.668;23.386;2022-11-14T03:17:14;96395.41;;;3.90;100.00
27210;BME280;14721;42.668;23.386;2022-11-14T03:19:40;96388.34;;;3.91;100.00
27210;BME280;14721;42.668;23.386;2022-11-14T03:22:06;96380.75;;;3.80;100.00
27210;BME280;14721;42.668;23.386;2022-11-14T03:24:31;96384.19;;;3.84;100.00
27210;BME280;14721;42.668;23.386;2022-11-14T03:26:57;96388.59;;;3.83;100.00
27210;BME280;14721;42.668;23.386;2022-11-14T03:29:22;96388.50;;;3.86;100.00
27210;BME280;14721;42.668;23.386;2022-11-14T03:31:48;96386.78;;;3.85;100.00
27210;BME280;14721;42.668;23.386;2022-11-14T03:34:14;96392.16;;;3.82;100.00
27210;BME280;14721;42.668;23.386;2022-11-14T03:36:39;96395.97;;;3.72;100.00
27210;BME280;14721;42.668;23.386;2022-11-14T03:39:05;96384.53;;;3.73;100.00
27210;BME280;14721;42.668;23.386;2022-11-14T03:41:31;96385.50;;;3.69;100.00
27210;BME280;14721;42.668;23.386;2022-11-14T03:43:56;96365.28;;;3.39;100.00
27210;BME280;14721;42.668;23.386;2022-11-14T03:46:22;96386.81;;;3.56;100.00
27210;BME280;14721;42.668;23.386;2022-11-14T03:48:48;96385.84;;;3.59;100.00
27210;BME280;14721;42.668;23.386;2022-11-14T03:51:13;96366.91;;;3.45;100.00
27210;BME280;14721;42.668;23.386;2022-11-14T03:53:42;96382.53;;;3.52;100.00
27210;BME280;14721;42.668;23.386;2022-11-14T03:56:07;96389.81;;;3.44;100.00
27210;BME280;14721;42.668;23.386;2022-11-14T03:58:33;96384.53;;;3.44;100.00
27210;BME280;14721;42.668;23.386;2022-11-14T04:01:00;96388.09;;;3.43;100.00
27210;BME280;14721;42.668;23.386;2022-11-14T04:03:26;96379.75;;;3.28;100.00
27210;BME280;14721;42.668;23.386;2022-11-14T04:05:52;96381.31;;;3.33;100.00
27210;BME280;14721;42.668;23.386;2022-11-14T04:08:18;96377.16;;;3.26;100.00
27210;BME280;14721;42.668;23.386;2022-11-14T04:10:46;96384.09;;;3.29;100.00
27210;BME280;14721;42.668;23.386;2022-11-14T04:13:13;96381.38;;;3.32;100.00
27210;BME280;14721;42.668;23.386;2022-11-14T04:15:39;96382.91;;;3.40;100.00
27210;BME280;14721;42.668;23.386;2022-11-14T04:18:05;96376.56;;;3.46;100.00
27210;BME280;14721;42.668;23.386;2022-11-14T04:20:31;96367.91;;;3.41;100.00
27210;BME280;14721;42.668;23.386;2022-11-14T04:22:57;96381.66;;;3.52;100.00
27210;BME280;14721;42.668;23.386;2022-11-14T04:25:22;96384.28;;;3.52;100.00
27210;BME280;14721;42.668;23.386;2022-11-14T04:27:48;96375.50;;;3.51;100.00
27210;BME280;14721;42.668;23.386;2022-11-14T04:30:14;96370.91;;;3.58;100.00
27210;BME280;14721;42.668;23.386;2022-11-14T04:32:40;96371.78;;;3.58;100.00
27210;BME280;14721;42.668;23.386;2022-11-14T04:35:05;96366.50;;;3.58;100.00
27210;BME280;14721;42.668;23.386;2022-11-14T04:37:31;96366.72;;;3.51;100.00
27210;BME280;14721;42.668;23.386;2022-11-14T04:39:57;96377.19;;;3.54;100.00
27210;BME280;14721;42.668;23.386;2022-11-14T04:42:25;96372.63;;;3.59;100.00
27210;BME280;14721;42.668;23.386;2022-11-14T04:44:51;96365.56;;;3.59;100.00
27210;BME280;14721;42.668;23.386;2022-11-14T04:47:16;96369.22;;;3.55;100.00
27210;BME280;14721;42.668;23.386;2022-11-14T04:49:42;96368.53;;;3.49;100.00
27210;BME280;14721;42.668;23.386;2022-11-14T04:52:08;96370.91;;;3.58;100.00
27210;BME280;14721;42.668;23.386;2022-11-14T04:54:33;96371.69;;;3.61;100.00
27210;BME280;14721;42.668;23.386;2022-11-14T04:56:59;96373.31;;;3.65;100.00
27210;BME280;14721;42.668;23.386;2022-11-14T04:59:24;96370.66;;;3.65;100.00
27210;BME280;14721;42.668;23.386;2022-11-14T05:01:50;96346.34;;;3.54;100.00
27210;BME280;14721;42.668;23.386;2022-11-14T05:04:16;96369.69;;;3.68;100.00
27210;BME280;14721;42.668;23.386;2022-11-14T05:06:42;96369.66;;;3.69;100.00
27210;BME280;14721;42.668;23.386;2022-11-14T05:09:08;96371.41;;;3.70;100.00
27210;BME280;14721;42.668;23.386;2022-11-14T05:11:34;96372.72;;;3.56;100.00
27210;BME280;14721;42.668;23.386;2022-11-14T05:14:00;96377.34;;;3.49;100.00
27210;BME280;14721;42.668;23.386;2022-11-14T05:16:26;96385.34;;;3.46;100.00
27210;BME280;14721;42.668;23.386;2022-11-14T05:18:53;96380.13;;;3.45;100.00
27210;BME280;14721;42.668;23.386;2022-11-14T05:21:19;96380.13;;;3.45;100.00
27210;BME280;14721;42.668;23.386;2022-11-14T05:23:45;96388.28;;;3.37;100.00
27210;BME280;14721;42.668;23.386;2022-11-14T05:26:14;96388.44;;;3.31;100.00
27210;BME280;14721;42.668;23.386;2022-11-14T05:28:40;96394.72;;;3.27;100.00
27210;BME280;14721;42.668;23.386;2022-11-14T05:31:09;96385.25;;;3.20;100.00
27210;BME280;14721;42.668;23.386;2022-11-14T05:33:35;96393.91;;;3.25;100.00
27210;BME280;14721;42.668;23.386;2022-11-14T05:36:06;96387.41;;;3.37;100.00
27210;BME280;14721;42.668;23.386;2022-11-14T05:38:33;96356.25;;;3.19;100.00
27210;BME280;14721;42.668;23.386;2022-11-14T05:43:32;96386.94;;;3.52;100.00
27210;BME280;14721;42.668;23.386;2022-11-14T05:46:03;96374.94;;;3.42;100.00
27210;BME280;14721;42.668;23.386;2022-11-14T05:48:29;96392.22;;;3.52;100.00
27210;BME280;14721;42.668;23.386;2022-11-14T05:50:59;96393.47;;;3.40;100.00
27210;BME280;14721;42.668;23.386;2022-11-14T05:53:25;96400.34;;;3.46;100.00
27210;BME280;14721;42.668;23.386;2022-11-14T05:55:53;96404.25;;;3.62;100.00
27210;BME280;14721;42.668;23.386;2022-11-14T05:58:20;96402.41;;;3.64;100.00
27210;BME280;14721;42.668;23.386;2022-11-14T06:00:46;96395.31;;;3.66;100.00
27210;BME280;14721;42.668;23.386;2022-11-14T06:03:13;96391.06;;;3.60;100.00
27210;BME280;14721;42.668;23.386;2022-11-14T06:05:42;96380.59;;;3.57;100.00
27210;BME280;14721;42.668;23.386;2022-11-14T06:08:09;96396.06;;;3.69;100.00
27210;BME280;14721;42.668;23.386;2022-11-14T06:10:44;96400.41;;;3.72;100.00
27210;BME280;14721;42.668;23.386;2022-11-14T06:13:09;96409.06;;;3.77;100.00
27210;BME280;14721;42.668;23.386;2022-11-14T06:15:35;96417.63;;;3.85;100.00
27210;BME280;14721;42.668;23.386;2022-11-14T06:18:02;96414.00;;;3.87;100.00
27210;BME280;14721;42.668;23.386;2022-11-14T06:20:30;96414.88;;;3.88;100.00
27210;BME280;14721;42.668;23.386;2022-11-14T06:22:59;96418.25;;;3.93;100.00
27210;BME280;14721;42.668;23.386;2022-11-14T06:25:25;96414.66;;;3.96;100.00
27210;BME280;14721;42.668;23.386;2022-11-14T06:27:51;96407.50;;;3.99;100.00
27210;BME280;14721;42.668;23.386;2022-11-14T06:30:16;96416.13;;;4.04;100.00
27210;BME280;14721;42.668;23.386;2022-11-14T06:32:42;96408.97;;;4.08;100.00
27210;BME280;14721;42.668;23.386;2022-11-14T06:35:08;96411.31;;;4.17;100.00
27210;BME280;14721;42.668;23.386;2022-11-14T06:37:35;96408.47;;;4.23;100.00
27210;BME280;14721;42.668;23.386;2022-11-14T06:40:01;96397.75;;;4.27;100.00
27210;BME280;14721;42.668;23.386;2022-11-14T06:42:27;96402.09;;;4.28;100.00
27210;BME280;14721;42.668;23.386;2022-11-14T06:44:52;96409.78;;;4.36;100.00
27210;BME280;14721;42.668;23.386;2022-11-14T06:47:18;96397.28;;;4.41;100.00
27210;BME280;14721;42.668;23.386;2022-11-14T06:49:44;96408.53;;;4.47;100.00
27210;BME280;14721;42.668;23.386;2022-11-14T06:52:09;96391.59;;;4.53;100.00
27210;BME280;14721;42.668;23.386;2022-11-14T06:54:36;96402.56;;;4.67;100.00
27210;BME280;14721;42.668;23.386;2022-11-14T06:57:02;96397.97;;;4.72;100.00
27210;BME280;14721;42.668;23.386;2022-11-14T06:59:27;96392.56;;;4.75;100.00
27210;BME280;14721;42.668;23.386;2022-11-14T07:01:53;96395.16;;;4.76;100.00
27210;BME280;14721;42.668;23.386;2022-11-14T07:04:18;96391.03;;;4.94;100.00
27210;BME280;14721;42.668;23.386;2022-11-14T07:06:44;96380.09;;;5.03;100.00
27210;BME280;14721;42.668;23.386;2022-11-14T07:09:10;96390.69;;;5.03;100.00
27210;BME280;14721;42.668;23.386;2022-11-14T07:11:35;96379.88;;;5.09;100.00
27210;BME280;14721;42.668;23.386;2022-11-14T07:14:02;96381.25;;;5.19;100.00
27210;BME280;14721;42.668;23.386;2022-11-14T07:16:31;96362.47;;;5.02;100.00
27210;BME280;14721;42.668;23.386;2022-11-14T07:18:57;96388.88;;;5.28;100.00
27210;BME280;14721;42.668;23.386;2022-11-14T07:21:25;96386.00;;;5.34;99.97
27210;BME280;14721;42.668;23.386;2022-11-14T07:23:51;96388.88;;;5.28;99.30
27210;BME280;14721;42.668;23.386;2022-11-14T07:26:26;96377.63;;;5.21;99.30
27210;BME280;14721;42.668;23.386;2022-11-14T07:28:52;96387.22;;;5.24;99.26
27210;BME280;14721;42.668;23.386;2022-11-14T07:31:18;96388.59;;;5.35;98.79
27210;BME280;14721;42.668;23.386;2022-11-14T07:33:45;96388.13;;;5.47;98.77
27210;BME280;14721;42.668;23.386;2022-11-14T07:36:12;96390.66;;;5.50;97.98
27210;BME280;14721;42.668;23.386;2022-11-14T07:38:38;96384.25;;;5.56;98.35
27210;BME280;14721;42.668;23.386;2022-11-14T07:41:13;96384.78;;;5.65;97.20
27210;BME280;14721;42.668;23.386;2022-11-14T07:43:40;96379.25;;;5.71;96.89
27210;BME280;14721;42.668;23.386;2022-11-14T07:46:16;96365.69;;;5.79;96.67
27210;BME280;14721;42.668;23.386;2022-11-14T07:48:42;96384.59;;;5.93;96.19
27210;BME280;14721;42.668;23.386;2022-11-14T07:51:15;96372.94;;;5.97;95.25
27210;BME280;14721;42.668;23.386;2022-11-14T07:53:41;96382.75;;;5.95;95.02
27210;BME280;14721;42.668;23.386;2022-11-14T07:56:08;96376.56;;;5.95;94.31
27210;BME280;14721;42.668;23.386;2022-11-14T07:58:38;96364.94;;;5.99;94.69
27210;BME280;14721;42.668;23.386;2022-11-14T08:01:05;96373.19;;;6.13;94.84
27210;BME280;14721;42.668;23.386;2022-11-14T08:03:34;96374.25;;;6.09;94.41
27210;BME280;14721;42.668;23.386;2022-11-14T08:06:04;96371.78;;;6.04;94.85
27210;BME280;14721;42.668;23.386;2022-11-14T08:08:29;96354.25;;;6.00;95.58
27210;BME280;14721;42.668;23.386;2022-11-14T08:10:57;96353.38;;;6.00;94.56
27210;BME280;14721;42.668;23.386;2022-11-14T08:13:23;96365.53;;;6.27;94.69
27210;BME280;14721;42.668;23.386;2022-11-14T08:15:49;96372.88;;;6.20;94.39
27210;BME280;14721;42.668;23.386;2022-11-14T08:18:15;96374.91;;;6.35;94.27
27210;BME280;14721;42.668;23.386;2022-11-14T08:20:40;96358.00;;;6.38;93.92
27210;BME280;14721;42.668;23.386;2022-11-14T08:23:07;96363.91;;;6.44;93.68
27210;BME280;14721;42.668;23.386;2022-11-14T08:25:32;96362.94;;;6.47;93.38
27210;BME280;14721;42.668;23.386;2022-11-14T08:27:58;96364.41;;;6.74;92.68
27210;BME280;14721;42.668;23.386;2022-11-14T08:30:24;96365.81;;;6.82;91.73
27210;BME280;14721;42.668;23.386;2022-11-14T08:32:50;96359.75;;;6.99;91.00
27210;BME280;14721;42.668;23.386;2022-11-14T08:35:17;96356.22;;;6.98;90.19
27210;BME280;14721;42.668;23.386;2022-11-14T08:37:43;96363.50;;;7.13;89.21
27210;BME280;14721;42.668;23.386;2022-11-14T08:40:09;96357.66;;;7.25;89.47
27210;BME280;14721;42.668;23.386;2022-11-14T08:42:35;96350.06;;;7.36;88.25
27210;BME280;14721;42.668;23.386;2022-11-14T08:45:00;96356.19;;;7.38;87.25
27210;BME280;14721;42.668;23.386;2022-11-14T08:47:26;96357.91;;;7.39;87.14
27210;BME280;14721;42.668;23.386;2022-11-14T08:49:51;96349.94;;;7.19;86.43
27210;BME280;14721;42.668;23.386;2022-11-14T08:52:17;96358.88;;;7.18;86.82
27210;BME280;14721;42.668;23.386;2022-11-14T08:54:42;96344.56;;;7.21;87.64
27210;BME280;14721;42.668;23.386;2022-11-14T08:57:08;96344.63;;;7.19;87.97
27210;BME280;14721;42.668;23.386;2022-11-14T08:59:33;96344.00;;;7.14;87.80
27210;BME280;14721;42.668;23.386;2022-11-14T09:01:59;96334.41;;;7.10;88.69
27210;BME280;14721;42.668;23.386;2022-11-14T09:04:24;96308.06;;;7.06;89.20
27210;BME280;14721;42.668;23.386;2022-11-14T09:06:50;96333.16;;;7.19;88.95
27210;BME280;14721;42.668;23.386;2022-11-14T09:09:16;96333.66;;;7.08;88.86
27210;BME280;14721;42.668;23.386;2022-11-14T09:11:41;96332.44;;;6.95;89.80
27210;BME280;14721;42.668;23.386;2022-11-14T09:14:07;96331.75;;;6.92;90.30
27210;BME280;14721;42.668;23.386;2022-11-14T09:16:33;96323.34;;;7.01;90.06
27210;BME280;14721;42.668;23.386;2022-11-14T09:18:59;96321.88;;;7.14;90.36
27210;BME280;14721;42.668;23.386;2022-11-14T09:21:25;96317.44;;;7.14;90.38
27210;BME280;14721;42.668;23.386;2022-11-14T09:23:51;96290.72;;;7.17;89.97
27210;BME280;14721;42.668;23.386;2022-11-14T09:26:16;96306.50;;;7.39;88.97
27210;BME280;14721;42.668;23.386;2022-11-14T09:28:45;96284.19;;;7.43;88.91
27210;BME280;14721;42.668;23.386;2022-11-14T09:31:12;96301.28;;;7.56;88.63
27210;BME280;14721;42.668;23.386;2022-11-14T09:33:39;96303.56;;;7.63;88.12
27210;BME280;14721;42.668;23.386;2022-11-14T09:36:06;96297.25;;;7.66;87.93
27210;BME280;14721;42.668;23.386;2022-11-14T09:38:33;96283.94;;;7.66;87.74
27210;BME280;14721;42.668;23.386;2022-11-14T09:46:45;96298.84;;;7.70;88.20
27210;BME280;14721;42.668;23.386;2022-11-14T09:55:03;96286.63;;;8.02;87.05
27210;BME280;14721;42.668;23.386;2022-11-14T09:57:34;96281.13;;;8.05;86.76
27210;BME280;14721;42.668;23.386;2022-11-14T10:00:00;96282.09;;;8.04;86.42
27210;BME280;14721;42.668;23.386;2022-11-14T10:10:57;96262.53;;;8.22;85.67
27210;BME280;14721;42.668;23.386;2022-11-14T10:24:57;96239.63;;;8.36;84.63
27210;BME280;14721;42.668;23.386;2022-11-14T10:27:29;96232.34;;;8.23;84.74
27210;BME280;14721;42.668;23.386;2022-11-14T10:30:04;96235.59;;;8.11;85.69
27210;BME280;14721;42.668;23.386;2022-11-14T10:35:17;96214.69;;;7.86;86.83
27210;BME280;14721;42.668;23.386;2022-11-14T10:38:40;96211.59;;;7.77;87.38
27210;BME280;14721;42.668;23.386;2022-11-14T10:40:44;96204.16;;;7.66;88.03
27210;BME280;14721;42.668;23.386;2022-11-14T10:45:52;96210.00;;;7.55;88.97
27210;BME280;14721;42.668;23.386;2022-11-14T10:48:34;96205.97;;;7.65;89.31
27210;BME280;14721;42.668;23.386;2022-11-14T10:51:35;96192.25;;;7.73;89.23
27210;BME280;14721;42.668;23.386;2022-11-14T10:56:56;96191.19;;;7.77;89.55
27210;BME280;14721;42.668;23.386;2022-11-14T10:59:30;96177.97;;;7.76;89.83
27210;BME280;14721;42.668;23.386;2022-11-14T11:01:57;96181.19;;;7.99;89.79
27210;BME280;14721;42.668;23.386;2022-11-14T11:04:26;96180.31;;;8.16;89.04
27210;BME280;14721;42.668;23.386;2022-11-14T11:06:55;96177.25;;;8.06;88.86
27210;BME280;14721;42.668;23.386;2022-11-14T11:09:23;96177.41;;;8.03;89.11
27210;BME280;14721;42.668;23.386;2022-11-14T11:12:15;96169.03;;;8.11;89.42
27210;BME280;14721;42.668;23.386;2022-11-14T11:14:42;96175.34;;;8.27;89.43
27210;BME280;14721;42.668;23.386;2022-11-14T11:19:43;96170.19;;;8.24;89.29
27210;BME280;14721;42.668;23.386;2022-11-14T11:24:53;96157.56;;;8.27;89.11
27210;BME280;14721;42.668;23.386;2022-11-14T11:27:27;96151.59;;;8.39;88.65
27210;BME280;14721;42.668;23.386;2022-11-14T11:32:31;96155.44;;;8.51;88.47
27210;BME280;14721;42.668;23.386;2022-11-14T11:34:59;96158.97;;;8.67;88.48
27210;BME280;14721;42.668;23.386;2022-11-14T11:37:34;96155.19;;;8.71;88.39
27210;BME280;14721;42.668;23.386;2022-11-14T11:40:03;96138.78;;;8.63;88.04
27210;BME280;14721;42.668;23.386;2022-11-14T11:43:01;96154.13;;;8.75;88.43
27210;BME280;14721;42.668;23.386;2022-11-14T11:45:27;96161.69;;;8.82;88.05
27210;BME280;14721;42.668;23.386;2022-11-14T11:48:20;96146.88;;;8.77;88.24
27210;BME280;14721;42.668;23.386;2022-11-14T11:50:47;96142.53;;;8.91;88.09
27210;BME280;14721;42.668;23.386;2022-11-14T11:53:22;96139.28;;;9.02;87.69
27210;BME280;14721;42.668;23.386;2022-11-14T11:55:51;96132.47;;;8.96;87.23
27210;BME280;14721;42.668;23.386;2022-11-14T11:58:43;96131.03;;;9.06;87.25
27210;BME280;14721;42.668;23.386;2022-11-14T12:01:12;96121.91;;;9.10;87.47
27210;BME280;14721;42.668;23.386;2022-11-14T12:03:47;96131.28;;;9.17;87.36
27210;BME280;14721;42.668;23.386;2022-11-14T12:06:21;96119.66;;;9.03;87.45
27210;BME280;14721;42.668;23.386;2022-11-14T12:11:37;96104.88;;;9.13;87.21
27210;BME280;14721;42.668;23.386;2022-11-14T12:31:00;96084.16;;;9.63;84.24
27210;BME280;14721;42.668;23.386;2022-11-14T12:33:30;96071.59;;;9.65;84.17
27210;BME280;14721;42.668;23.386;2022-11-14T12:36:01;96091.88;;;9.83;83.81
27210;BME280;14721;42.668;23.386;2022-11-14T12:38:33;96096.56;;;9.94;82.82
27210;BME280;14721;42.668;23.386;2022-11-14T12:41:07;96092.41;;;10.04;82.69
27210;BME280;14721;42.668;23.386;2022-11-14T12:43:40;96080.91;;;10.17;82.05
27210;BME280;14721;42.668;23.386;2022-11-14T12:46:10;96082.06;;;10.27;81.26
27210;BME280;14721;42.668;23.386;2022-11-14T12:48:41;96077.13;;;10.35;80.78
27210;BME280;14721;42.668;23.386;2022-11-14T12:53:56;96072.94;;;10.59;79.48
27210;BME280;14721;42.668;23.386;2022-11-14T13:10:10;96060.66;;;10.97;76.51
27210;BME280;14721;42.668;23.386;2022-11-14T13:12:37;96061.03;;;11.05;76.17
27210;BME280;14721;42.668;23.386;2022-11-14T13:15:30;96052.72;;;11.10;76.43
27210;BME280;14721;42.668;23.386;2022-11-14T13:18:33;96053.50;;;10.98;76.66
27210;BME280;14721;42.668;23.386;2022-11-14T13:21:26;96019.91;;;10.94;76.31
27210;BME280;14721;42.668;23.386;2022-11-14T13:24:17;96045.91;;;11.18;75.77
27210;BME280;14721;42.668;23.386;2022-11-14T13:26:48;96043.44;;;11.15;75.72
27210;BME280;14721;42.668;23.386;2022-11-14T13:32:09;96036.97;;;11.05;76.86
27210;BME280;14721;42.668;23.386;2022-11-14T13:34:58;96040.75;;;11.15;76.76
27210;BME280;14721;42.668;23.386;2022-11-14T13:38:07;96036.34;;;11.28;77.10
27210;BME280;14721;42.668;23.386;2022-11-14T13:40:38;96034.88;;;11.37;76.11
27210;BME280;14721;42.668;23.386;2022-11-14T13:43:47;96035.44;;;11.42;75.97
27210;BME280;14721;42.668;23.386;2022-11-14T13:51:36;96038.31;;;11.52;75.60
27210;BME280;14721;42.668;23.386;2022-11-14T13:54:10;96044.50;;;11.39;75.12
27210;BME280;14721;42.668;23.386;2022-11-14T13:56:47;96039.91;;;11.41;75.60
27210;BME280;14721;42.668;23.386;2022-11-14T14:10:08;96027.13;;;11.32;76.01
27210;BME280;14721;42.668;23.386;2022-11-14T14:15:33;96019.13;;;11.32;75.53
27210;BME280;14721;42.668;23.386;2022-11-14T14:20:47;96026.16;;;11.33;75.04
27210;BME280;14721;42.668;23.386;2022-11-14T14:26:21;96026.56;;;11.27;75.55
27210;BME280;14721;42.668;23.386;2022-11-14T14:28:57;96025.38;;;11.19;75.68
27210;BME280;14721;42.668;23.386;2022-11-14T14:31:35;96019.75;;;11.09;76.19
27210;BME280;14721;42.668;23.386;2022-11-14T14:34:02;96015.41;;;10.94;76.48
27210;BME280;14721;42.668;23.386;2022-11-14T14:36:29;96003.78;;;10.81;76.73
27210;BME280;14721;42.668;23.386;2022-11-14T14:39:23;96021.16;;;10.88;76.96
27210;BME280;14721;42.668;23.386;2022-11-14T14:41:50;96017.81;;;10.85;77.38
27210;BME280;14721;42.668;23.386;2022-11-14T14:44:38;96017.16;;;10.81;77.23
27210;BME280;14721;42.668;23.386;2022-11-14T14:50:00;96009.06;;;10.69;77.89
27210;BME280;14721;42.668;23.386;2022-11-14T14:52:33;96012.69;;;10.68;78.05
27210;BME280;14721;42.668;23.386;2022-11-14T14:54:59;96005.34;;;10.57;78.60
27210;BME280;14721;42.668;23.386;2022-11-14T14:57:28;96008.03;;;10.57;78.72
27210;BME280;14721;42.668;23.386;2022-11-14T14:59:58;96012.59;;;10.55;78.95
27210;BME280;14721;42.668;23.386;2022-11-14T15:02:24;96016.44;;;10.51;79.13
27210;BME280;14721;42.668;23.386;2022-11-14T15:04:50;96013.19;;;10.46;78.81
27210;BME280;14721;42.668;23.386;2022-11-14T15:07:19;96010.78;;;10.42;79.13